createdAt,value
2019-03-19T00:01:04.936Z,1.50
2019-03-19T00:03:34.164Z,1.15
2019-03-19T00:06:03.401Z,1.20
2019-03-19T00:08:32.813Z,1.07
2019-03-19T00:11:02.048Z,2.67
2019-03-19T00:13:31.332Z,1.25
2019-03-19T00:16:00.655Z,0.90
2019-03-19T00:18:29.810Z,1.20
2019-03-19T00:20:59.042Z,1.87
2019-03-19T00:23:28.386Z,2.30
2019-03-19T00:25:57.686Z,2.85
2019-03-19T00:28:26.846Z,1.55
2019-03-19T00:30:56.065Z,1.65
2019-03-19T00:33:25.307Z,1.50
2019-03-19T00:35:54.629Z,1.77
2019-03-19T00:38:23.798Z,2.42
2019-03-19T00:40:52.945Z,2.02
2019-03-19T00:43:22.166Z,1.90
2019-03-19T00:45:51.463Z,0.85
2019-03-19T00:48:20.695Z,1.77
2019-03-19T00:50:49.943Z,1.60
2019-03-19T00:53:19.358Z,2.47
2019-03-19T00:55:48.645Z,3.02
2019-03-19T00:58:17.820Z,3.55
2019-03-19T01:00:47.084Z,2.05
2019-03-19T01:03:16.499Z,4.03
2019-03-19T01:05:45.666Z,1.30
2019-03-19T01:08:14.902Z,2.20
2019-03-19T01:10:44.159Z,1.17
2019-03-19T01:13:13.302Z,1.45
2019-03-19T01:15:42.478Z,3.25
2019-03-19T01:18:11.629Z,2.12
2019-03-19T01:20:40.842Z,2.00
2019-03-19T01:23:10.071Z,3.25
2019-03-19T01:25:39.650Z,2.15
2019-03-19T01:28:09.007Z,3.00
2019-03-19T01:30:38.195Z,3.08
2019-03-19T01:33:07.404Z,2.25
2019-03-19T01:35:36.624Z,1.47
2019-03-19T01:38:05.805Z,2.40
2019-03-19T01:40:34.961Z,2.47
2019-03-19T01:43:04.095Z,1.30
2019-03-19T01:45:33.284Z,2.20
2019-03-19T01:48:02.521Z,1.47
2019-03-19T01:50:31.663Z,1.55
2019-03-19T01:53:00.845Z,1.47
2019-03-19T01:55:29.983Z,1.10
2019-03-19T01:57:59.118Z,3.15
2019-03-19T02:00:28.361Z,4.72
2019-03-19T02:02:57.509Z,1.90
2019-03-19T02:05:26.651Z,1.15
2019-03-19T02:07:55.909Z,3.65
2019-03-19T02:10:25.128Z,3.35
2019-03-19T02:12:54.287Z,1.15
2019-03-19T02:15:23.443Z,2.05
2019-03-19T02:17:52.641Z,2.65
2019-03-19T02:20:21.787Z,2.85
2019-03-19T02:22:51.017Z,2.65
2019-03-19T02:25:20.165Z,1.42
2019-03-19T02:27:49.308Z,2.37
2019-03-19T02:30:18.523Z,2.02
2019-03-19T02:32:47.746Z,4.10
2019-03-19T02:35:16.946Z,2.35
2019-03-19T02:37:46.213Z,4.05
2019-03-19T02:40:15.435Z,4.35
2019-03-19T02:42:44.599Z,2.58
2019-03-19T02:45:14.248Z,2.12
2019-03-19T02:47:43.687Z,2.67
2019-03-19T02:50:13.686Z,3.27
2019-03-19T02:52:42.950Z,2.30
2019-03-19T02:55:12.456Z,2.87
2019-03-19T02:57:41.697Z,3.65
2019-03-19T03:00:11.169Z,2.40
2019-03-19T03:02:40.384Z,2.60
2019-03-19T03:05:11.536Z,4.17
2019-03-19T03:07:40.790Z,3.15
2019-03-19T03:10:10.265Z,3.67
2019-03-19T03:12:39.515Z,3.05
2019-03-19T03:15:27.802Z,4.35
2019-03-19T03:17:57.023Z,2.87
2019-03-19T03:20:26.242Z,1.10
2019-03-19T03:22:55.508Z,3.33
2019-03-19T03:25:24.826Z,1.47
2019-03-19T03:27:54.151Z,2.25
2019-03-19T03:30:23.850Z,1.50
2019-03-19T03:32:53.453Z,2.92
2019-03-19T03:35:23.013Z,2.33
2019-03-19T03:37:52.199Z,2.40
2019-03-19T03:40:21.431Z,2.67
2019-03-19T03:42:50.648Z,2.20
2019-03-19T03:45:20.374Z,3.35
2019-03-19T03:47:49.571Z,2.17
2019-03-19T03:50:18.934Z,3.42
2019-03-19T03:52:48.639Z,2.05
2019-03-19T03:55:17.893Z,2.70
2019-03-19T03:57:47.105Z,2.37
2019-03-19T04:00:16.310Z,3.75
2019-03-19T04:02:45.513Z,2.33
2019-03-19T04:05:14.731Z,2.35
2019-03-19T04:07:43.976Z,2.30
2019-03-19T04:10:13.223Z,2.00
2019-03-19T04:12:42.398Z,1.35
2019-03-19T04:15:13.959Z,2.87
2019-03-19T04:17:43.253Z,3.87
2019-03-19T04:20:13.446Z,1.55
2019-03-19T04:22:42.629Z,2.10
2019-03-19T04:25:12.259Z,1.70
2019-03-19T04:27:41.491Z,2.17
2019-03-19T04:30:10.994Z,1.60
2019-03-19T04:32:40.127Z,2.42
2019-03-19T04:35:09.535Z,2.33
2019-03-19T04:37:38.865Z,2.90
2019-03-19T04:40:09.651Z,2.85
2019-03-19T04:42:38.878Z,1.10
2019-03-19T04:45:09.117Z,2.85
2019-03-19T04:47:38.337Z,3.05
2019-03-19T04:50:08.531Z,2.22
2019-03-19T04:52:37.709Z,1.72
2019-03-19T04:55:06.992Z,2.17
2019-03-19T04:57:36.210Z,1.70
2019-03-19T05:00:06.608Z,1.87
2019-03-19T05:02:35.809Z,3.00
2019-03-19T05:05:05.977Z,2.40
2019-03-19T05:07:35.180Z,2.37
2019-03-19T05:10:05.270Z,2.62
2019-03-19T05:12:34.477Z,2.92
2019-03-19T05:15:04.229Z,2.75
2019-03-19T05:17:35.164Z,1.90
2019-03-19T05:20:05.268Z,1.75
2019-03-19T05:22:34.416Z,5.05
2019-03-19T05:25:03.733Z,1.90
2019-03-19T05:27:37.258Z,3.30
2019-03-19T05:30:04.182Z,1.92
2019-03-19T05:32:33.408Z,1.70
2019-03-19T05:35:02.660Z,1.47
2019-03-19T05:37:31.880Z,2.65
2019-03-19T05:40:01.118Z,2.15
2019-03-19T05:42:30.607Z,1.92
2019-03-19T05:44:59.766Z,2.55
2019-03-19T05:47:36.721Z,2.37
2019-03-19T05:49:59.993Z,1.50
2019-03-19T05:52:29.140Z,3.87
2019-03-19T05:54:58.358Z,1.45
2019-03-19T05:57:27.548Z,2.15
2019-03-19T05:59:56.763Z,1.50
2019-03-19T06:02:26.035Z,3.60
2019-03-19T06:04:55.209Z,4.12
2019-03-19T06:07:24.436Z,1.67
2019-03-19T06:09:53.734Z,3.50
2019-03-19T06:12:22.885Z,3.27
2019-03-19T06:14:52.033Z,2.45
2019-03-19T06:17:21.266Z,3.80
2019-03-19T06:19:52.347Z,2.25
2019-03-19T06:22:21.568Z,2.15
2019-03-19T06:24:50.781Z,1.98
2019-03-19T06:27:20.027Z,1.72
2019-03-19T06:29:49.180Z,1.70
2019-03-19T06:32:18.347Z,2.50
2019-03-19T06:34:47.539Z,1.77
2019-03-19T06:37:16.773Z,1.85
2019-03-19T06:39:46.005Z,3.10
2019-03-19T06:42:15.362Z,3.52
2019-03-19T06:44:44.656Z,1.90
2019-03-19T06:47:13.806Z,4.12
2019-03-19T06:49:42.967Z,2.95
2019-03-19T06:52:12.132Z,4.05
2019-03-19T06:54:41.360Z,6.17
2019-03-19T06:57:10.598Z,3.33
2019-03-19T06:59:39.768Z,3.65
2019-03-19T07:02:08.899Z,3.87
2019-03-19T07:04:38.174Z,4.95
2019-03-19T07:07:07.403Z,5.22
2019-03-19T07:09:36.617Z,3.20
2019-03-19T07:12:05.879Z,3.87
2019-03-19T07:14:35.089Z,3.60
2019-03-19T07:17:04.505Z,3.90
2019-03-19T07:19:33.713Z,4.83
2019-03-19T07:22:04.608Z,4.12
2019-03-19T07:24:33.789Z,3.98
2019-03-19T07:27:03.049Z,4.75
2019-03-19T07:29:32.266Z,2.98
2019-03-19T07:32:01.401Z,5.33
2019-03-19T07:34:30.655Z,5.75
2019-03-19T07:36:59.957Z,4.87
2019-03-19T07:39:29.182Z,4.12
2019-03-19T07:41:58.428Z,5.55
2019-03-19T07:44:27.580Z,4.40
2019-03-19T07:46:56.841Z,6.20
2019-03-19T07:49:26.023Z,5.85
2019-03-19T07:51:55.247Z,4.95
2019-03-19T07:54:24.462Z,5.03
2019-03-19T07:56:53.629Z,4.80
2019-03-19T07:59:22.837Z,5.58
2019-03-19T08:01:51.974Z,4.47
2019-03-19T08:04:21.174Z,4.55
2019-03-19T08:06:50.374Z,3.45
2019-03-19T08:09:19.579Z,4.65
2019-03-19T08:11:48.785Z,4.05
2019-03-19T08:14:18.010Z,3.80
2019-03-19T08:16:47.160Z,2.35
2019-03-19T08:19:16.353Z,6.00
2019-03-19T08:21:45.494Z,4.75
2019-03-19T08:24:14.651Z,4.33
2019-03-19T08:26:43.883Z,4.35
2019-03-19T08:29:13.069Z,7.58
2019-03-19T08:31:42.283Z,4.65
2019-03-19T08:34:11.474Z,4.78
2019-03-19T08:36:40.761Z,5.22
2019-03-19T08:39:10.013Z,3.77
2019-03-19T08:41:39.269Z,2.75
2019-03-19T08:44:08.533Z,7.12
2019-03-19T08:46:37.744Z,5.78
2019-03-19T08:49:06.991Z,4.40
2019-03-19T08:51:36.223Z,3.17
2019-03-19T08:54:05.693Z,3.15
2019-03-19T08:56:34.944Z,3.70
2019-03-19T08:59:06.162Z,2.87
2019-03-19T09:01:35.047Z,2.83
2019-03-19T09:04:04.446Z,4.30
2019-03-19T09:06:33.660Z,3.30
2019-03-19T09:09:03.202Z,2.20
2019-03-19T09:11:32.507Z,2.42
2019-03-19T09:14:01.652Z,2.50
2019-03-19T09:16:30.968Z,4.30
2019-03-19T09:19:00.139Z,3.70
2019-03-19T09:21:29.278Z,4.12
2019-03-19T09:23:59.999Z,2.60
2019-03-19T09:26:29.187Z,2.77
2019-03-19T09:28:58.357Z,3.27
2019-03-19T09:31:27.498Z,1.72
2019-03-19T09:33:56.663Z,1.35
2019-03-19T09:36:25.893Z,2.75
2019-03-19T09:38:55.058Z,2.15
2019-03-19T09:41:24.324Z,2.25
2019-03-19T09:43:53.726Z,2.50
2019-03-19T09:46:23.119Z,1.85
2019-03-19T09:48:52.385Z,1.77
2019-03-19T09:51:21.695Z,4.10
2019-03-19T09:53:50.835Z,1.27
2019-03-19T09:56:19.995Z,1.50
2019-03-19T09:58:49.294Z,1.82
2019-03-19T10:01:18.449Z,1.60
2019-03-19T10:03:48.053Z,2.55
2019-03-19T10:06:17.276Z,2.87
2019-03-19T10:08:46.431Z,1.82
2019-03-19T10:11:15.627Z,3.75
2019-03-19T10:13:44.839Z,1.65
2019-03-19T10:16:14.080Z,2.37
2019-03-19T10:18:43.281Z,1.20
2019-03-19T10:21:12.486Z,2.65
2019-03-19T10:23:41.649Z,2.92
2019-03-19T10:26:10.913Z,1.95
2019-03-19T10:28:40.065Z,2.10
2019-03-19T10:31:09.275Z,2.47
2019-03-19T10:33:38.521Z,2.35
2019-03-19T10:36:07.773Z,1.98
2019-03-19T10:38:37.064Z,1.50
2019-03-19T10:41:06.260Z,1.95
2019-03-19T10:43:35.568Z,1.75
2019-03-19T10:46:04.881Z,1.75
2019-03-19T10:48:34.159Z,1.70
2019-03-19T10:51:03.325Z,3.12
2019-03-19T10:53:32.476Z,1.77
2019-03-19T10:56:01.721Z,4.20
2019-03-19T10:58:30.976Z,1.60
2019-03-19T11:01:00.191Z,2.37
2019-03-19T11:03:29.433Z,1.87
2019-03-19T11:05:58.648Z,2.10
2019-03-19T11:08:27.859Z,2.35
2019-03-19T11:10:57.111Z,2.10
2019-03-19T11:13:26.353Z,2.42
2019-03-19T11:15:55.583Z,2.77
2019-03-19T11:18:24.783Z,2.55
2019-03-19T11:20:54.022Z,1.77
2019-03-19T11:23:23.336Z,2.90
2019-03-19T11:25:54.754Z,1.95
2019-03-19T11:28:23.397Z,3.25
2019-03-19T11:30:52.648Z,2.85
2019-03-19T11:33:21.910Z,1.77
2019-03-19T11:35:51.129Z,1.77
2019-03-19T11:38:20.361Z,2.53
2019-03-19T11:40:49.655Z,3.40
2019-03-19T11:43:18.825Z,3.05
2019-03-19T11:45:48.076Z,2.13
2019-03-19T11:48:17.325Z,1.33
2019-03-19T11:50:46.551Z,2.60
2019-03-19T11:53:15.780Z,2.47
2019-03-19T11:55:45.031Z,2.87
2019-03-19T11:58:14.198Z,2.50
2019-03-19T12:00:46.243Z,2.10
2019-03-19T12:03:16.593Z,2.10
2019-03-19T12:05:46.074Z,2.33
2019-03-19T12:08:15.527Z,3.33
2019-03-19T12:10:44.939Z,1.97
2019-03-19T12:13:14.175Z,2.30
2019-03-19T12:15:43.404Z,1.60
2019-03-19T12:18:12.661Z,1.90
2019-03-19T12:20:41.985Z,2.20
2019-03-19T12:23:11.155Z,1.50
2019-03-19T12:25:40.410Z,2.37
2019-03-19T12:28:09.636Z,2.53
2019-03-19T12:30:38.880Z,2.50
2019-03-19T12:33:08.155Z,1.53
2019-03-19T12:35:37.303Z,2.17
2019-03-19T12:38:06.463Z,1.53
2019-03-19T12:40:37.118Z,1.57
2019-03-19T12:43:06.939Z,2.00
2019-03-19T12:45:36.166Z,2.03
2019-03-19T12:48:05.782Z,1.87
2019-03-19T12:50:34.994Z,2.13
2019-03-19T12:53:04.454Z,2.70
2019-03-19T12:55:33.641Z,1.40
2019-03-19T12:58:02.924Z,2.23
2019-03-19T13:00:34.443Z,3.57
2019-03-19T13:03:03.120Z,1.30
2019-03-19T13:05:32.284Z,2.10
2019-03-19T13:08:01.506Z,1.00
2019-03-19T13:10:30.842Z,2.30
2019-03-19T13:12:59.980Z,1.27
2019-03-19T13:15:29.131Z,1.37
2019-03-19T13:17:58.315Z,2.07
2019-03-19T13:20:27.471Z,2.27
2019-03-19T13:22:56.621Z,2.40
2019-03-19T13:25:25.832Z,1.77
2019-03-19T13:27:55.075Z,2.97
2019-03-19T13:30:24.314Z,1.60
2019-03-19T13:32:53.583Z,2.20
2019-03-19T13:35:22.792Z,2.70
2019-03-19T13:37:52.003Z,0.97
2019-03-19T13:40:21.197Z,2.03
2019-03-19T13:42:50.476Z,1.53
2019-03-19T13:45:19.660Z,2.80
2019-03-19T13:47:48.876Z,2.10
2019-03-19T13:50:18.777Z,1.70
2019-03-19T13:52:48.000Z,2.73
2019-03-19T13:55:17.309Z,1.77
2019-03-19T13:57:46.659Z,2.20
2019-03-19T14:00:16.217Z,1.37
2019-03-19T14:02:45.498Z,1.47
2019-03-19T14:05:15.163Z,1.60
2019-03-19T14:07:44.397Z,2.00
2019-03-19T14:10:14.497Z,2.27
2019-03-19T14:12:43.692Z,2.40
2019-03-19T14:15:14.103Z,1.60
2019-03-19T14:17:43.334Z,1.73
2019-03-19T14:20:14.343Z,2.30
2019-03-19T14:22:45.121Z,1.80
2019-03-19T14:25:14.461Z,1.77
2019-03-19T14:27:43.652Z,2.53
2019-03-19T14:30:15.137Z,1.93
2019-03-19T14:32:44.373Z,1.93
2019-03-19T14:35:13.804Z,1.53
2019-03-19T14:37:43.019Z,1.67
2019-03-19T14:40:14.307Z,2.30
2019-03-19T14:42:43.533Z,1.43
2019-03-19T14:45:14.395Z,1.97
2019-03-19T14:47:43.610Z,1.97
2019-03-19T14:50:13.610Z,1.70
2019-03-19T14:52:43.919Z,1.87
2019-03-19T14:55:13.537Z,1.33
2019-03-19T14:57:43.078Z,2.10
2019-03-19T15:00:13.931Z,1.57
2019-03-19T15:02:43.241Z,1.77
2019-03-19T15:05:13.303Z,2.10
2019-03-19T15:07:42.443Z,1.33
2019-03-19T15:10:13.584Z,1.80
2019-03-19T15:12:42.803Z,2.20
2019-03-19T15:15:13.539Z,1.40
2019-03-19T15:17:42.753Z,1.87
2019-03-19T15:20:14.366Z,1.20
2019-03-19T15:22:43.650Z,2.03
2019-03-19T15:25:12.918Z,1.57
2019-03-19T15:27:42.146Z,1.87
2019-03-19T15:30:11.682Z,2.23
2019-03-19T15:32:41.024Z,1.80
2019-03-19T15:35:12.172Z,1.43
2019-03-19T15:37:41.693Z,1.57
2019-03-19T15:40:12.443Z,0.90
2019-03-19T15:42:41.692Z,1.77
2019-03-19T15:45:11.815Z,1.97
2019-03-19T15:47:41.105Z,2.00
2019-03-19T15:50:12.313Z,1.00
2019-03-19T15:52:41.565Z,2.13
2019-03-19T15:55:10.876Z,1.57
2019-03-19T15:57:40.040Z,1.67
2019-03-19T16:00:12.203Z,1.73
2019-03-19T16:02:41.456Z,1.30
2019-03-19T16:05:11.528Z,1.33
2019-03-19T16:07:41.145Z,1.83
2019-03-19T16:10:10.657Z,1.83
2019-03-19T16:12:39.854Z,1.30
2019-03-19T16:15:10.783Z,1.77
2019-03-19T16:17:40.170Z,1.10
2019-03-19T16:20:11.838Z,1.20
2019-03-19T16:22:41.330Z,1.37
2019-03-19T16:25:10.830Z,1.30
2019-03-19T16:27:39.993Z,1.37
2019-03-19T16:30:10.571Z,0.97
2019-03-19T16:32:39.990Z,1.10
2019-03-19T16:35:09.800Z,1.43
2019-03-19T16:37:40.886Z,1.37
2019-03-19T16:40:12.951Z,1.50
2019-03-19T16:42:42.200Z,0.87
2019-03-19T16:45:11.470Z,1.70
2019-03-19T16:47:40.672Z,2.57
2019-03-19T16:50:11.374Z,2.60
2019-03-19T16:52:40.538Z,1.80
2019-03-19T16:55:10.502Z,0.80
2019-03-19T16:57:39.931Z,1.00
2019-03-19T17:00:12.360Z,0.90
2019-03-19T17:02:41.542Z,1.23
2019-03-19T17:05:10.911Z,0.70
2019-03-19T17:07:40.489Z,1.60
2019-03-19T17:10:11.434Z,1.23
2019-03-19T17:12:42.024Z,1.43
2019-03-19T17:15:12.022Z,2.53
2019-03-19T17:17:41.264Z,1.80
2019-03-19T17:20:11.485Z,1.90
2019-03-19T17:22:40.887Z,2.60
2019-03-19T17:25:11.543Z,1.70
2019-03-19T17:27:40.844Z,1.40
2019-03-19T17:30:17.263Z,2.70
2019-03-19T17:32:46.674Z,1.25
2019-03-19T17:35:15.939Z,0.85
2019-03-19T17:37:45.151Z,2.02
2019-03-19T17:40:14.453Z,1.17
2019-03-19T17:42:43.997Z,1.10
2019-03-19T17:45:13.437Z,1.77
2019-03-19T17:47:42.748Z,0.95
2019-03-19T17:50:14.467Z,1.00
2019-03-19T17:52:43.825Z,1.90
2019-03-19T17:55:13.157Z,1.67
2019-03-19T17:57:42.406Z,2.15
2019-03-19T18:00:14.578Z,1.37
2019-03-19T18:02:43.833Z,2.08
2019-03-19T18:05:13.279Z,1.52
2019-03-19T18:07:42.561Z,2.62
2019-03-19T18:10:12.443Z,2.30
2019-03-19T18:12:42.095Z,1.60
2019-03-19T18:15:11.328Z,1.37
2019-03-19T18:17:40.568Z,2.15
2019-03-19T18:20:09.965Z,1.80
2019-03-19T18:22:39.168Z,2.62
2019-03-19T18:25:09.172Z,1.65
2019-03-19T18:27:38.404Z,1.70
2019-03-19T18:30:09.414Z,2.67
2019-03-19T18:32:38.645Z,2.40
2019-03-19T18:35:08.126Z,2.70
2019-03-19T18:37:37.436Z,2.08
2019-03-19T18:40:06.953Z,3.55
2019-03-19T18:42:37.887Z,2.17
2019-03-19T18:45:07.336Z,2.87
2019-03-19T18:47:36.506Z,3.65
2019-03-19T18:50:07.016Z,1.95
2019-03-19T18:52:36.356Z,2.22
2019-03-19T18:55:06.429Z,2.45
2019-03-19T18:57:35.674Z,4.28
2019-03-19T19:00:06.060Z,2.65
2019-03-19T19:02:35.392Z,2.75
2019-03-19T19:05:05.549Z,2.65
2019-03-19T19:07:34.806Z,2.90
2019-03-19T19:10:05.004Z,2.27
2019-03-19T19:12:34.255Z,4.08
2019-03-19T19:15:04.144Z,2.50
2019-03-19T19:17:33.301Z,3.70
2019-03-19T19:20:02.532Z,4.72
2019-03-19T19:22:31.839Z,2.10
2019-03-19T19:25:01.011Z,2.12
2019-03-19T19:27:30.239Z,2.27
2019-03-19T19:29:59.518Z,3.12
2019-03-19T19:32:28.852Z,3.80
2019-03-19T19:34:58.091Z,2.67
2019-03-19T19:37:27.373Z,3.25
2019-03-19T19:39:56.627Z,2.65
2019-03-19T19:42:25.811Z,2.52
2019-03-19T19:44:55.088Z,1.80
2019-03-19T19:47:24.268Z,4.00
2019-03-19T19:49:53.486Z,2.47
2019-03-19T19:52:22.744Z,4.62
2019-03-19T19:54:51.902Z,2.60
2019-03-19T19:57:21.105Z,1.85
2019-03-19T19:59:50.381Z,1.90
2019-03-19T20:02:19.528Z,2.22
2019-03-19T20:04:48.762Z,2.30
2019-03-19T20:07:18.028Z,1.80
2019-03-19T20:09:47.188Z,2.40
2019-03-19T20:12:16.463Z,2.10
2019-03-19T20:14:45.803Z,2.08
2019-03-19T20:17:15.021Z,2.10
2019-03-19T20:19:44.319Z,2.30
2019-03-19T20:22:13.655Z,3.52
2019-03-19T20:24:43.175Z,2.85
2019-03-19T20:27:12.682Z,1.80
2019-03-19T20:29:41.957Z,1.92
2019-03-19T20:32:11.202Z,2.37
2019-03-19T20:34:40.434Z,1.52
2019-03-19T20:37:09.612Z,3.22
2019-03-19T20:39:38.917Z,2.25
2019-03-19T20:42:07.670Z,1.80
2019-03-19T20:44:36.864Z,2.15
2019-03-19T20:47:06.135Z,3.12
2019-03-19T20:49:35.453Z,1.67
2019-03-19T20:52:04.824Z,2.35
2019-03-19T20:54:34.100Z,2.55
2019-03-19T20:57:03.336Z,1.75
2019-03-19T20:59:32.589Z,2.70
2019-03-19T21:02:01.819Z,1.47
2019-03-19T21:04:32.007Z,4.33
2019-03-19T21:07:02.526Z,3.85
2019-03-19T21:09:31.749Z,4.28
2019-03-19T21:12:00.995Z,8.83
2019-03-19T21:14:30.266Z,11.53
2019-03-19T21:16:59.511Z,7.37
2019-03-19T21:19:28.831Z,5.58
2019-03-19T21:22:00.453Z,5.28
2019-03-19T21:24:28.950Z,3.47
2019-03-19T21:26:58.192Z,6.10
2019-03-19T21:29:27.558Z,3.58
2019-03-19T21:31:56.782Z,3.42
2019-03-19T21:34:26.020Z,3.95
2019-03-19T21:36:55.359Z,3.55
2019-03-19T21:39:24.611Z,5.10
2019-03-19T21:41:53.801Z,3.52
2019-03-19T21:44:23.130Z,2.35
2019-03-19T21:46:52.376Z,3.75
2019-03-19T21:49:21.709Z,2.15
2019-03-19T21:51:50.957Z,2.85
2019-03-19T21:54:20.250Z,4.37
2019-03-19T21:56:49.555Z,3.22
2019-03-19T21:59:18.731Z,2.45
2019-03-19T22:01:47.973Z,2.80
2019-03-19T22:04:17.204Z,2.72
2019-03-19T22:06:46.389Z,2.47
2019-03-19T22:09:15.647Z,3.70
2019-03-19T22:11:44.948Z,3.17
2019-03-19T22:14:14.131Z,2.83
2019-03-19T22:16:43.280Z,3.33
2019-03-19T22:19:12.435Z,3.30
2019-03-19T22:21:41.626Z,3.47
2019-03-19T22:24:10.772Z,1.85
2019-03-19T22:26:40.016Z,2.20
2019-03-19T22:29:09.273Z,3.15
2019-03-19T22:31:38.508Z,2.00
2019-03-19T22:34:13.974Z,2.85
2019-03-19T22:36:38.588Z,2.70
2019-03-19T22:39:09.111Z,2.85
2019-03-19T22:41:38.297Z,4.65
2019-03-19T22:44:07.518Z,5.28
2019-03-19T22:46:36.792Z,3.50
2019-03-19T22:49:06.179Z,4.85
2019-03-19T22:51:35.470Z,3.22
2019-03-19T22:54:04.643Z,3.77
2019-03-19T22:56:34.306Z,2.95
2019-03-19T22:59:03.510Z,2.52
2019-03-19T23:01:32.737Z,4.12
2019-03-19T23:04:01.899Z,3.33
2019-03-19T23:06:31.236Z,3.60
2019-03-19T23:09:00.398Z,3.92
2019-03-19T23:11:29.543Z,3.87
2019-03-19T23:13:58.724Z,3.20
2019-03-19T23:16:28.110Z,3.45
2019-03-19T23:18:57.361Z,3.27
2019-03-19T23:21:26.620Z,3.10
2019-03-19T23:23:55.774Z,2.40
2019-03-19T23:26:25.000Z,2.67
2019-03-19T23:28:54.263Z,4.08
2019-03-19T23:31:23.416Z,3.55
2019-03-19T23:33:52.641Z,5.03
2019-03-19T23:36:21.888Z,4.78
2019-03-19T23:38:51.114Z,4.78
2019-03-19T23:41:20.526Z,4.70
2019-03-19T23:43:49.882Z,2.52
2019-03-19T23:46:19.147Z,4.53
2019-03-19T23:48:48.378Z,4.03
2019-03-19T23:51:17.636Z,3.60
2019-03-19T23:53:46.763Z,3.67
2019-03-19T23:56:15.916Z,3.30
2019-03-19T23:58:45.095Z,2.58
